createdAt,value
2023-03-27T00:01:17.771Z,3.77
2023-03-27T00:03:44.853Z,3.79
2023-03-27T00:06:17.083Z,3.77
2023-03-27T00:08:48.732Z,3.75
2023-03-27T00:11:16.854Z,3.71
2023-03-27T00:13:49.998Z,3.69
2023-03-27T00:16:17.655Z,3.69
2023-03-27T00:18:45.038Z,3.67
2023-03-27T00:21:11.629Z,3.67
2023-03-27T00:23:38.142Z,3.66
2023-03-27T00:26:05.515Z,3.67
2023-03-27T00:28:32.333Z,3.68
2023-03-27T00:30:59.371Z,3.67
2023-03-27T00:33:27.150Z,3.64
2023-03-27T00:35:54.219Z,3.64
2023-03-27T00:38:21.073Z,3.63
2023-03-27T00:40:50.580Z,3.61
2023-03-27T00:43:20.531Z,3.60
2023-03-27T00:45:49.010Z,3.60
2023-03-27T00:48:15.963Z,3.58
2023-03-27T00:50:44.271Z,3.59
2023-03-27T00:53:16.006Z,3.58
2023-03-27T00:55:44.698Z,3.57
2023-03-27T00:58:17.697Z,3.58
2023-03-27T01:00:46.679Z,3.58
2023-03-27T01:03:14.234Z,3.53
2023-03-27T01:05:41.182Z,3.50
2023-03-27T01:08:07.970Z,3.45
2023-03-27T01:10:59.185Z,3.40
2023-03-27T01:13:38.669Z,3.35
2023-03-27T01:16:20.299Z,3.32
2023-03-27T01:19:30.427Z,3.31
2023-03-27T01:22:32.559Z,3.30
2023-03-27T01:25:13.047Z,3.29
2023-03-27T01:28:27.023Z,3.31
2023-03-27T01:30:59.606Z,3.32
2023-03-27T01:33:47.085Z,3.32
2023-03-27T01:36:44.204Z,3.31
2023-03-27T01:39:16.629Z,3.30
2023-03-27T01:41:51.388Z,3.29
2023-03-27T01:44:36.319Z,3.27
2023-03-27T01:47:22.167Z,3.26
2023-03-27T01:50:00.123Z,3.24
2023-03-27T01:52:31.737Z,3.22
2023-03-27T01:55:04.909Z,3.20
2023-03-27T01:58:00.461Z,3.18
2023-03-27T02:00:52.318Z,3.18
2023-03-27T02:03:26.589Z,3.18
2023-03-27T02:06:03.241Z,3.19
2023-03-27T02:08:39.559Z,3.18
2023-03-27T02:11:14.169Z,3.16
2023-03-27T02:13:43.342Z,3.13
2023-03-27T02:16:16.504Z,3.09
2023-03-27T02:18:49.727Z,3.05
2023-03-27T02:21:16.370Z,3.00
2023-03-27T02:23:44.651Z,2.97
2023-03-27T02:26:13.286Z,2.92
2023-03-27T02:29:18.281Z,2.88
2023-03-27T02:32:17.450Z,2.82
2023-03-27T02:35:02.784Z,2.77
2023-03-27T02:37:51.155Z,2.72
2023-03-27T02:40:26.185Z,2.68
2023-03-27T02:43:12.580Z,2.63
2023-03-27T02:45:59.804Z,2.57
2023-03-27T02:48:35.343Z,2.52
2023-03-27T02:51:43.296Z,2.46
2023-03-27T02:54:15.873Z,2.40
2023-03-27T02:56:54.860Z,2.37
2023-03-27T02:59:35.464Z,2.32
2023-03-27T03:02:07.980Z,2.29
2023-03-27T03:04:50.566Z,2.29
2023-03-27T03:07:22.750Z,2.27
2023-03-27T03:09:49.222Z,2.28
2023-03-27T03:12:16.020Z,2.29
2023-03-27T03:14:45.271Z,2.30
2023-03-27T03:17:13.075Z,2.28
2023-03-27T03:19:39.721Z,2.26
2023-03-27T03:22:06.911Z,2.22
2023-03-27T03:24:35.633Z,2.18
2023-03-27T03:27:04.511Z,2.12
2023-03-27T03:29:38.243Z,2.05
2023-03-27T03:32:15.693Z,2.01
2023-03-27T03:34:46.637Z,1.96
2023-03-27T03:37:14.994Z,1.94
2023-03-27T03:39:41.452Z,1.91
2023-03-27T03:42:08.173Z,1.88
2023-03-27T03:44:37.065Z,1.84
2023-03-27T03:47:15.627Z,1.81
2023-03-27T03:49:42.614Z,1.79
2023-03-27T03:52:09.615Z,1.74
2023-03-27T03:54:38.662Z,1.70
2023-03-27T03:57:05.571Z,1.65
2023-03-27T03:59:33.830Z,1.63
2023-03-27T04:02:28.325Z,1.60
2023-03-27T04:04:59.884Z,1.59
2023-03-27T04:07:35.609Z,1.55
2023-03-27T04:10:39.314Z,1.56
2023-03-27T04:13:13.572Z,1.53
2023-03-27T04:15:51.429Z,1.52
2023-03-27T04:18:32.447Z,1.53
2023-03-27T04:21:01.605Z,1.53
2023-03-27T04:23:33.670Z,1.53
2023-03-27T04:26:02.005Z,1.54
2023-03-27T04:28:51.590Z,1.53
2023-03-27T04:31:39.113Z,1.52
2023-03-27T04:34:25.292Z,1.49
2023-03-27T04:37:23.079Z,1.46
2023-03-27T04:40:20.657Z,1.44
2023-03-27T04:42:47.232Z,1.41
2023-03-27T04:45:20.491Z,1.36
2023-03-27T04:47:49.737Z,1.36
2023-03-27T04:50:17.172Z,1.39
2023-03-27T04:52:44.778Z,1.41
2023-03-27T04:55:12.203Z,1.43
2023-03-27T04:57:41.690Z,1.46
2023-03-27T05:00:16.283Z,1.46
2023-03-27T05:02:47.560Z,1.45
2023-03-27T05:05:36.764Z,1.45
2023-03-27T05:08:05.334Z,1.44
2023-03-27T05:10:31.779Z,1.41
2023-03-27T05:12:59.766Z,1.39
2023-03-27T05:15:26.482Z,1.38
2023-03-27T05:17:55.052Z,1.34
2023-03-27T05:20:25.072Z,1.33
2023-03-27T05:22:56.266Z,1.33
2023-03-27T05:25:25.952Z,1.36
2023-03-27T05:27:54.395Z,1.36
2023-03-27T05:30:23.414Z,1.36
2023-03-27T05:32:59.080Z,1.36
2023-03-27T05:35:28.599Z,1.36
2023-03-27T05:37:57.469Z,1.34
2023-03-27T05:40:34.131Z,1.33
2023-03-27T05:43:01.641Z,1.33
2023-03-27T05:45:29.850Z,1.34
2023-03-27T05:47:58.694Z,1.33
2023-03-27T05:50:28.860Z,1.35
2023-03-27T05:52:59.860Z,1.38
2023-03-27T05:55:34.343Z,1.43
2023-03-27T05:58:01.544Z,1.44
2023-03-27T06:00:31.840Z,1.46
2023-03-27T06:03:01.169Z,1.50
2023-03-27T06:06:00.255Z,1.56
2023-03-27T06:08:32.461Z,1.58
2023-03-27T06:10:59.257Z,1.61
2023-03-27T06:13:33.611Z,1.61
2023-03-27T06:16:06.859Z,1.65
2023-03-27T06:18:56.284Z,1.74
2023-03-27T06:21:23.670Z,1.73
2023-03-27T06:23:57.079Z,1.73
2023-03-27T06:26:23.609Z,1.90
2023-03-27T06:28:50.216Z,1.93
2023-03-27T06:31:17.643Z,2.45
2023-03-27T06:34:02.589Z,3.98
2023-03-27T06:36:51.908Z,5.01
2023-03-27T06:39:18.526Z,5.27
2023-03-27T06:41:50.478Z,5.40
2023-03-27T06:44:24.723Z,5.35
2023-03-27T06:46:59.930Z,5.29
2023-03-27T06:49:33.798Z,4.54
2023-03-27T06:52:09.018Z,4.10
2023-03-27T06:54:35.669Z,4.03
2023-03-27T06:57:02.773Z,4.16
2023-03-27T06:59:40.826Z,4.18
2023-03-27T07:02:11.681Z,4.22
2023-03-27T07:05:04.321Z,4.26
2023-03-27T07:07:41.472Z,4.27
2023-03-27T07:10:10.467Z,4.35
2023-03-27T07:12:38.798Z,4.42
2023-03-27T07:15:06.324Z,4.49
2023-03-27T07:17:45.890Z,4.58
2023-03-27T07:20:16.233Z,4.65
2023-03-27T07:22:43.185Z,4.76
2023-03-27T07:25:20.056Z,4.89
2023-03-27T07:27:46.872Z,4.92
2023-03-27T07:30:14.214Z,4.99
2023-03-27T07:32:44.707Z,5.15
2023-03-27T07:35:11.869Z,5.15
2023-03-27T07:37:57.653Z,5.23
2023-03-27T07:40:39.871Z,5.17
2023-03-27T07:43:39.104Z,5.34
2023-03-27T07:46:06.889Z,5.47
2023-03-27T07:48:35.849Z,5.58
2023-03-27T07:51:13.251Z,5.71
2023-03-27T07:53:41.471Z,5.86
2023-03-27T07:56:33.764Z,5.98
2023-03-27T07:59:21.993Z,5.97
2023-03-27T08:01:50.675Z,6.00
2023-03-27T08:04:18.236Z,6.10
2023-03-27T08:06:58.697Z,6.14
2023-03-27T08:09:25.543Z,6.27
2023-03-27T08:11:52.029Z,6.47
2023-03-27T08:14:18.903Z,6.48
2023-03-27T08:16:46.386Z,6.44
2023-03-27T08:19:14.046Z,6.14
2023-03-27T08:21:45.509Z,6.15
2023-03-27T08:24:11.981Z,5.94
2023-03-27T08:27:07.550Z,6.14
2023-03-27T08:29:39.038Z,6.35
2023-03-27T08:32:10.560Z,6.52
2023-03-27T08:34:40.761Z,6.66
2023-03-27T08:37:08.749Z,6.86
2023-03-27T08:39:58.721Z,7.02
2023-03-27T08:42:34.178Z,6.67
2023-03-27T08:45:09.484Z,6.71
2023-03-27T08:47:50.358Z,6.79
2023-03-27T08:50:41.097Z,6.84
2023-03-27T08:53:32.189Z,6.98
2023-03-27T08:56:01.278Z,7.10
2023-03-27T08:58:40.221Z,7.28
2023-03-27T09:01:48.608Z,7.46
2023-03-27T09:04:28.832Z,7.54
2023-03-27T09:07:06.141Z,7.70
2023-03-27T09:10:01.903Z,7.82
2023-03-27T09:13:04.197Z,8.15
2023-03-27T09:15:39.898Z,7.75
2023-03-27T09:18:14.394Z,7.40
2023-03-27T09:20:46.694Z,7.26
2023-03-27T09:23:25.868Z,7.67
2023-03-27T09:26:16.388Z,8.06
2023-03-27T09:29:20.770Z,6.84
2023-03-27T09:31:56.216Z,6.11
2023-03-27T09:34:27.456Z,5.54
2023-03-27T09:36:54.424Z,5.13
2023-03-27T09:39:27.376Z,4.84
2023-03-27T09:42:16.631Z,4.54
2023-03-27T09:44:50.402Z,4.45
2023-03-27T09:47:37.518Z,4.51
2023-03-27T09:50:28.378Z,4.65
2023-03-27T09:53:12.792Z,4.82
2023-03-27T09:55:56.420Z,5.23
2023-03-27T09:58:27.898Z,5.46
2023-03-27T10:01:20.258Z,5.77
2023-03-27T10:03:56.547Z,5.97
2023-03-27T10:06:48.426Z,6.24
2023-03-27T10:09:35.966Z,6.37
2023-03-27T10:12:10.210Z,6.35
2023-03-27T10:14:41.378Z,6.42
2023-03-27T10:17:25.384Z,6.39
2023-03-27T10:20:11.185Z,6.45
2023-03-27T10:22:41.985Z,6.70
2023-03-27T10:25:39.344Z,6.84
2023-03-27T10:28:28.084Z,6.93
2023-03-27T10:31:28.380Z,6.97
2023-03-27T10:34:03.635Z,7.02
2023-03-27T10:36:49.347Z,7.36
2023-03-27T10:39:20.746Z,7.56
2023-03-27T10:42:16.794Z,7.68
2023-03-27T10:44:49.177Z,7.36
2023-03-27T10:47:19.922Z,6.97
2023-03-27T10:50:10.869Z,6.65
2023-03-27T10:52:55.953Z,6.34
2023-03-27T10:56:05.900Z,6.22
2023-03-27T10:58:52.046Z,6.53
2023-03-27T11:01:34.535Z,6.69
2023-03-27T11:04:11.069Z,6.92
2023-03-27T11:06:49.341Z,7.11
2023-03-27T11:09:26.813Z,7.42
2023-03-27T11:12:10.311Z,7.30
2023-03-27T11:14:59.316Z,7.02
2023-03-27T11:17:35.949Z,6.98
2023-03-27T11:20:26.460Z,7.17
2023-03-27T11:22:59.558Z,7.42
2023-03-27T11:25:45.094Z,7.65
2023-03-27T11:28:24.814Z,7.91
2023-03-27T11:30:56.552Z,7.85
2023-03-27T11:33:27.636Z,7.63
2023-03-27T11:36:16.268Z,6.86
2023-03-27T11:38:56.428Z,6.19
2023-03-27T11:41:23.312Z,5.69
2023-03-27T11:43:50.033Z,5.36
2023-03-27T11:47:24.944Z,5.31
2023-03-27T11:50:12.157Z,5.63
2023-03-27T11:53:06.210Z,5.88
2023-03-27T11:56:13.321Z,6.01
2023-03-27T11:59:18.485Z,6.23
2023-03-27T12:02:21.525Z,6.31
2023-03-27T12:04:55.608Z,6.45
2023-03-27T12:08:02.359Z,6.71
2023-03-27T12:10:37.294Z,6.76
2023-03-27T12:13:38.561Z,6.76
2023-03-27T12:16:19.483Z,6.88
2023-03-27T12:19:39.201Z,7.02
2023-03-27T12:22:35.724Z,7.19
2023-03-27T12:25:36.200Z,6.72
2023-03-27T12:28:49.366Z,6.42
2023-03-27T12:31:28.416Z,6.19
2023-03-27T12:34:05.003Z,6.21
2023-03-27T12:36:37.418Z,6.28
2023-03-27T12:39:24.312Z,6.29
2023-03-27T12:41:51.078Z,6.28
2023-03-27T12:44:31.308Z,6.25
2023-03-27T12:47:22.722Z,6.30
2023-03-27T12:49:59.612Z,6.24
2023-03-27T12:52:32.774Z,6.27
2023-03-27T12:55:14.177Z,6.33
2023-03-27T12:58:01.645Z,6.26
2023-03-27T13:01:00.527Z,6.27
2023-03-27T13:03:55.008Z,6.30
2023-03-27T13:06:36.714Z,6.37
2023-03-27T13:09:23.310Z,6.33
2023-03-27T13:12:28.261Z,6.37
2023-03-27T13:15:31.723Z,6.44
2023-03-27T13:18:19.309Z,6.47
2023-03-27T13:20:56.364Z,6.42
2023-03-27T13:23:41.519Z,6.61
2023-03-27T13:26:24.814Z,6.72
2023-03-27T13:28:56.432Z,6.88
2023-03-27T13:31:46.979Z,6.86
2023-03-27T13:34:35.878Z,6.40
2023-03-27T13:37:09.656Z,6.45
2023-03-27T13:40:01.305Z,6.41
2023-03-27T13:42:34.997Z,6.27
2023-03-27T13:45:28.150Z,6.19
2023-03-27T13:48:45.142Z,6.10
2023-03-27T13:51:28.221Z,6.01
2023-03-27T13:54:36.875Z,6.14
2023-03-27T13:57:37.261Z,6.24
2023-03-27T14:00:18.001Z,6.38
2023-03-27T14:03:04.297Z,6.42
2023-03-27T14:05:56.488Z,6.55
2023-03-27T14:08:40.184Z,6.69
2023-03-27T14:11:40.029Z,6.86
2023-03-27T14:14:38.436Z,6.86
2023-03-27T14:17:33.660Z,6.84
2023-03-27T14:20:22.018Z,6.81
2023-03-27T14:23:04.674Z,6.99
2023-03-27T14:26:20.072Z,7.20
2023-03-27T14:28:55.587Z,7.29
2023-03-27T14:31:37.675Z,7.40
2023-03-27T14:34:12.103Z,7.25
2023-03-27T14:36:49.728Z,7.11
2023-03-27T14:39:25.955Z,6.89
2023-03-27T14:42:02.284Z,6.67
2023-03-27T14:44:32.634Z,6.73
2023-03-27T14:47:11.865Z,6.92
2023-03-27T14:49:46.163Z,7.01
2023-03-27T14:52:24.858Z,7.16
2023-03-27T14:55:15.015Z,7.17
2023-03-27T14:57:41.909Z,7.16
2023-03-27T15:00:16.365Z,7.10
2023-03-27T15:02:47.960Z,7.18
2023-03-27T15:05:18.059Z,7.22
2023-03-27T15:07:50.526Z,7.07
2023-03-27T15:10:27.950Z,7.00
2023-03-27T15:13:09.819Z,6.95
2023-03-27T15:15:44.168Z,6.99
2023-03-27T15:18:33.773Z,7.00
2023-03-27T15:21:06.374Z,6.99
2023-03-27T15:23:58.747Z,7.03
2023-03-27T15:26:30.365Z,6.97
2023-03-27T15:29:22.974Z,7.01
2023-03-27T15:31:51.846Z,6.96
2023-03-27T15:34:23.729Z,6.97
2023-03-27T15:37:05.786Z,7.03
2023-03-27T15:39:34.328Z,7.00
2023-03-27T15:42:10.864Z,7.01
2023-03-27T15:44:39.628Z,7.04
2023-03-27T15:47:24.674Z,7.10
2023-03-27T15:50:18.413Z,7.13
2023-03-27T15:52:52.667Z,7.19
2023-03-27T15:55:44.221Z,7.16
2023-03-27T15:58:19.890Z,7.20
2023-03-27T16:00:51.570Z,7.20
2023-03-27T16:03:23.444Z,7.19
2023-03-27T16:05:56.708Z,7.32
2023-03-27T16:08:31.540Z,7.27
2023-03-27T16:10:59.063Z,7.22
2023-03-27T16:13:56.737Z,7.20
2023-03-27T16:16:29.180Z,7.09
2023-03-27T16:19:00.058Z,6.91
2023-03-27T16:21:27.661Z,6.75
2023-03-27T16:23:54.633Z,6.60
2023-03-27T16:26:31.522Z,6.50
2023-03-27T16:29:01.739Z,6.56
2023-03-27T16:31:28.294Z,6.60
2023-03-27T16:33:54.782Z,6.57
2023-03-27T16:36:39.490Z,6.50
2023-03-27T16:39:09.077Z,6.46
2023-03-27T16:41:36.236Z,6.48
2023-03-27T16:44:03.307Z,6.45
2023-03-27T16:46:31.528Z,6.37
2023-03-27T16:48:58.497Z,6.32
2023-03-27T16:51:27.409Z,6.28
2023-03-27T16:53:54.054Z,6.16
2023-03-27T16:56:21.183Z,6.05
2023-03-27T16:58:48.526Z,6.01
2023-03-27T17:01:15.508Z,5.98
2023-03-27T17:03:42.268Z,5.98
2023-03-27T17:06:11.339Z,5.93
2023-03-27T17:08:38.501Z,5.84
2023-03-27T17:11:10.999Z,5.77
2023-03-27T17:13:40.211Z,5.69
2023-03-27T17:16:08.489Z,5.58
2023-03-27T17:18:34.914Z,5.47
2023-03-27T17:21:01.670Z,5.44
2023-03-27T17:23:28.249Z,5.36
2023-03-27T17:25:54.966Z,5.33
2023-03-27T17:28:21.681Z,5.26
2023-03-27T17:31:00.984Z,5.25
2023-03-27T17:33:30.384Z,5.26
2023-03-27T17:35:57.651Z,5.25
2023-03-27T17:38:24.597Z,5.25
2023-03-27T17:40:51.624Z,5.22
2023-03-27T17:43:18.411Z,5.20
2023-03-27T17:45:45.317Z,5.15
2023-03-27T17:48:11.894Z,5.11
2023-03-27T17:50:39.388Z,5.07
2023-03-27T17:53:06.741Z,5.03
2023-03-27T17:55:35.989Z,4.99
2023-03-27T17:58:08.905Z,4.96
2023-03-27T18:00:37.228Z,4.96
2023-03-27T18:03:04.113Z,4.97
2023-03-27T18:05:30.993Z,4.98
2023-03-27T18:07:57.551Z,4.95
2023-03-27T18:10:24.324Z,4.90
2023-03-27T18:12:50.975Z,4.85
2023-03-27T18:15:17.453Z,4.78
2023-03-27T18:17:43.950Z,4.75
2023-03-27T18:20:10.447Z,4.70
2023-03-27T18:22:38.071Z,4.65
2023-03-27T18:25:08.545Z,4.59
2023-03-27T18:27:44.795Z,4.54
2023-03-27T18:30:14.377Z,4.50
2023-03-27T18:32:42.716Z,4.43
2023-03-27T18:35:13.817Z,4.38
2023-03-27T18:37:41.566Z,4.33
2023-03-27T18:40:09.736Z,4.29
2023-03-27T18:42:37.615Z,4.25
2023-03-27T18:45:06.272Z,4.22
2023-03-27T18:47:32.885Z,4.17
2023-03-27T18:49:59.612Z,4.13
2023-03-27T18:52:26.854Z,4.09
2023-03-27T18:54:53.411Z,4.03
2023-03-27T18:57:20.114Z,3.99
2023-03-27T18:59:47.387Z,3.97
2023-03-27T19:02:17.185Z,3.92
2023-03-27T19:04:44.390Z,3.90
2023-03-27T19:07:11.552Z,3.86
2023-03-27T19:09:41.257Z,3.82
2023-03-27T19:12:09.524Z,3.80
2023-03-27T19:14:54.705Z,3.74
2023-03-27T19:17:55.962Z,3.71
2023-03-27T19:20:42.186Z,3.66
2023-03-27T19:23:31.067Z,3.58
2023-03-27T19:26:10.479Z,3.54
2023-03-27T19:28:41.174Z,3.49
2023-03-27T19:31:08.960Z,3.47
2023-03-27T19:33:36.115Z,3.42
2023-03-27T19:36:05.509Z,3.38
2023-03-27T19:38:32.160Z,3.34
2023-03-27T19:40:58.921Z,3.30
2023-03-27T19:43:25.894Z,3.26
2023-03-27T19:46:08.325Z,3.23
2023-03-27T19:48:42.050Z,3.20
2023-03-27T19:51:15.714Z,3.18
2023-03-27T19:53:48.926Z,3.15
2023-03-27T19:56:19.527Z,3.12
2023-03-27T19:58:45.977Z,3.09
2023-03-27T20:01:12.477Z,3.06
2023-03-27T20:03:39.876Z,3.03
2023-03-27T20:06:14.183Z,3.00
2023-03-27T20:08:42.090Z,2.98
2023-03-27T20:11:08.788Z,2.96
2023-03-27T20:13:42.563Z,2.94
2023-03-27T20:16:16.409Z,2.93
2023-03-27T20:18:45.884Z,2.92
2023-03-27T20:21:13.745Z,2.90
2023-03-27T20:23:41.860Z,2.87
2023-03-27T20:26:13.926Z,2.84
2023-03-27T20:28:45.418Z,2.82
2023-03-27T20:31:11.889Z,2.81
2023-03-27T20:33:38.429Z,2.76
2023-03-27T20:36:05.303Z,2.71
2023-03-27T20:38:32.773Z,2.67
2023-03-27T20:41:03.894Z,2.62
2023-03-27T20:43:34.786Z,2.57
2023-03-27T20:46:03.407Z,2.52
2023-03-27T20:48:40.085Z,2.48
2023-03-27T20:51:14.666Z,2.44
2023-03-27T20:53:46.366Z,2.39
2023-03-27T20:56:14.238Z,2.36
2023-03-27T20:58:42.125Z,2.29
2023-03-27T21:01:09.832Z,2.24
2023-03-27T21:03:39.322Z,2.18
2023-03-27T21:06:07.748Z,2.12
2023-03-27T21:08:34.596Z,2.07
2023-03-27T21:11:01.956Z,2.03
2023-03-27T21:13:28.893Z,1.97
2023-03-27T21:15:55.457Z,1.89
2023-03-27T21:18:22.547Z,1.85
2023-03-27T21:20:49.165Z,1.82
2023-03-27T21:23:15.954Z,1.79
2023-03-27T21:25:44.126Z,1.75
2023-03-27T21:28:11.766Z,1.73
2023-03-27T21:30:47.051Z,1.68
2023-03-27T21:33:16.135Z,1.65
2023-03-27T21:35:45.649Z,1.61
2023-03-27T21:38:13.154Z,1.59
2023-03-27T21:40:40.831Z,1.55
2023-03-27T21:43:08.848Z,1.51
2023-03-27T21:45:36.202Z,1.48
2023-03-27T21:48:02.843Z,1.45
2023-03-27T21:50:29.844Z,1.43
2023-03-27T21:52:56.499Z,1.40
2023-03-27T21:55:23.221Z,1.39
2023-03-27T21:57:49.818Z,1.34
2023-03-27T22:00:16.529Z,1.32
2023-03-27T22:02:43.137Z,1.30
2023-03-27T22:05:09.883Z,1.28
2023-03-27T22:07:36.658Z,1.26
2023-03-27T22:10:06.145Z,1.24
2023-03-27T22:12:36.176Z,1.21
2023-03-27T22:15:04.358Z,1.18
2023-03-27T22:17:30.868Z,1.16
2023-03-27T22:19:58.112Z,1.14
2023-03-27T22:22:25.076Z,1.13
2023-03-27T22:24:51.624Z,1.12
2023-03-27T22:27:18.235Z,1.12
2023-03-27T22:29:44.721Z,1.10
2023-03-27T22:32:11.407Z,1.07
2023-03-27T22:34:37.913Z,1.05
2023-03-27T22:37:04.455Z,1.01
2023-03-27T22:39:31.450Z,0.98
2023-03-27T22:41:57.998Z,0.97
2023-03-27T22:44:24.731Z,0.94
2023-03-27T22:46:52.863Z,0.91
2023-03-27T22:49:19.448Z,0.90
2023-03-27T22:51:45.891Z,0.89
2023-03-27T22:54:12.434Z,0.87
2023-03-27T22:56:38.885Z,0.86
2023-03-27T22:59:06.057Z,0.82
2023-03-27T23:01:32.670Z,0.81
2023-03-27T23:03:59.262Z,0.80
2023-03-27T23:06:25.844Z,0.80
2023-03-27T23:08:52.600Z,0.79
2023-03-27T23:11:19.717Z,0.78
2023-03-27T23:13:46.607Z,0.75
2023-03-27T23:16:13.324Z,0.72
2023-03-27T23:18:40.118Z,0.70
2023-03-27T23:21:09.675Z,0.70
2023-03-27T23:23:38.216Z,0.67
2023-03-27T23:26:06.154Z,0.62
2023-03-27T23:28:35.587Z,0.61
2023-03-27T23:31:05.280Z,0.58
2023-03-27T23:33:40.642Z,0.55
2023-03-27T23:36:20.849Z,0.54
2023-03-27T23:38:47.342Z,0.52
2023-03-27T23:41:15.369Z,0.50
2023-03-27T23:43:42.302Z,0.48
2023-03-27T23:46:10.858Z,0.45
2023-03-27T23:48:39.430Z,0.44
2023-03-27T23:51:06.949Z,0.42
2023-03-27T23:53:34.165Z,0.41
2023-03-27T23:56:01.554Z,0.40
2023-03-27T23:58:32.206Z,0.41
